Air Resources Laboratory banner image
Air Resources Laboratory web site National Oceanic and Atmospheric Administration (NOAA)

ut metar


KBCE 181253Z AUTO 28008KT 10SM CLR M04/M05 A3031 RMK AO2 SLP241 I1000 T10391050=
KCDC 181253Z AUTO 00000KT 10SM CLR 00/M01 A3026 RMK AO2 SLP239 T00001011=
KCNY 181253Z AUTO 27003KT 9SM -RA FEW028 BKN034 OVC044 07/07 A3027 RMK AO2
 RAB43 SLP241 P0001 T00670067=
KDPG 181255Z 12001KT 45SM SCT075 BKN100 04/01 A3027 RMK SLP231 FIRST T00370008=
KDTA 181255Z AUTO 06003KT 10SM SCT070 02/00 A3027 RMK AO1=
KENV 181256Z AUTO 25003KT 10SM CLR 05/M01 A3025 RMK AO2 SLP242 T00501011=
KHIF 181258Z AUTO 11006KT 10SM CLR 07/01 A3026 RMK AO2 SLP226 T00700013=
KHVE 181255Z AUTO 00000KT 10SM SCT013 BKN020 OVC055 06/06 A3032 RMK AO2=
KLGU 181251Z AUTO 00000KT 10SM BKN085 OVC100 02/M01 A3027 RMK AO2 SLP244
 T00171006=
KMLF 181252Z AUTO 22007KT 10SM CLR 00/M01 A3027 RMK AO2 SLP241 T00001011=
KOGD 181253Z 17008KT 10SM FEW095 08/02 A3025 RMK AO2 SLP223 T00780017=
KPUC 181253Z AUTO 00000KT 10SM BKN032 OVC080 03/03 A3030 RMK AO2 SLP265
 T00330033=
KPVU 181256Z 17005KT 10SM CLR 05/01 A3029 RMK AO2 SLP244 T00500011=
KSGU 181256Z AUTO 16004KT 10SM CLR 08/02 A3025 RMK AO2 SLP235 T00780022=
KSLC 181254Z 13005KT 10SM SCT075 08/02 A3026 RMK AO2 SLP227 T00780017=
KSLR 181255Z AUTO 06004KT 10SM OVC060 14/11 A3041 RMK AO2 T01380110=
KVEL 181253Z AUTO 22003KT 10SM FEW013 SCT023 OVC029 06/05 A3033 RMK AO2 RAE1158
 SLP253 P0000 T00610050=